หน้าหลัก
METAR-TAF:

METAR-TAF

ท่าอากาศยาน :

เกาะไซปัน, หมู่เกาะแมเรียนา, สหรัฐอเมริกา

ละติจูด: 15-07N, ลองจิจูด: 145-44E, ความสูง: 66 ม.

การสังเกตสภาพอากาศปัจจุบัน

รายงานได้ทำขึ้นเมื่อ 24 นาทีที่แล้ว ณ เวลา 03:54 UTC
ลม 10 นอตจากตะวันออก
อุณหภูมิ 31°C
ความชื้น 75%
ความกดอากาศ 1012 hPa
ทัศนวิสัย: 16.1 กม.
มีเมฆกระจายเป็นบางส่วนที่ความสูง 1900 ฟุต

METAR: PGSN 130354Z 10010KT 10SM SCT019 31/26 A2987 RMK AO2 SLP135 T03110256 $

เวลา: 14:18 (04:18 UTC)

การพยากรณ์

รายงานได้ทำขึ้นเมื่อ 4 ชั่วโมงและ 46 นาทีที่แล้ว ณ เวลา 23:32 UTC
การพยากรณ์มีผลตั้งแต่วันที่ 13 ณ เวลา 00 UTC จนถึงวันที่ 13 ณ เวลา 24 UTC
ลม 13 นอตจากตะวันออก
ทัศนวิสัย: 10 กม.
มีเมฆกระจายเป็นบางส่วนที่ความสูง 2000 ฟุต
มีเมฆกระจายเป็นบางส่วนที่ความสูง 4000 ฟุต
การโปรยปรายในบริเวณใกล้เคียง,

TAF: PGSN 122332Z 1300/1324 09013KT P6SM VCSH SCT020 SCT040

สังเกตการณ์สภาพอากาศและพยากรณ์อากาศของสนามบินมากกว่า 4000 แห่ง (รายงาน METAR และ TAF).

สถานีที่ดูได้จะแสดงไว้ด้วยจุดสีเหลืองและสีแดงบนแผนที่.

เลื่อนเมาส์ไปเหนือจุดเพื่อดูชื่อสถานี.

แล้วคลิกเพื่อดูสังเกตการณ์และการพยากรณ์สภาพอากาศ.

ในการเปลี่ยนแผนที่: คลิกที่ปุ่มสีเขียวที่มีกากบาทสีดำเพื่อซูมเข้า; ที่ปุ่มสีเขียวที่มีขีดเพื่อซูมออก; หรือที่ลูกศรสีเขียวเพื่อไปยังแผนที่ที่อยู่ติดกัน.


METAR-TAF: